^^
Datos históricos de la estación: Murcia-Puente Tocinos
Diario Informe para Julio 27, 2019 Unidades:  Métrico    Ingés   Ambas
Diario Semanal Mensual Anual
  Máxima: Mínima: Promedio:
Temperatura: 19 °C 8.3 °C 13.5 °C
Punto de rocio: 6.6 °C -1.3 °C 2.5 °C
Humedad: 75% 31% 50%
Velocidad viento: 31.7km/h 3.2km/h 12.4km/h
Racha viento: 57.9km/h - -
Viento- - OSO
Presión: 1015.0 hPa 1009.8 hPa -
Precipitación: 0.0 mm    
 
 
Tabla de datos para Julio 27, 2019
Hora Temperatura Punto de rocio Presión Viento Velocidad viento Racha viento Humedad Intensidad lluvia(por hora) Nubes
00:04 10.8 °C 6.6 °C 1014.4 hPa SSE 8.4 km/h 16.7 km/h 75% 0.0 mm
00:09 10.7 °C 6.5 °C 1014.4 hPa Sur 8.5 km/h 16.1 km/h 75% 0.0 mm
00:14 10.7 °C 6.4 °C 1014.4 hPa Sur 8.7 km/h 12.9 km/h 75% 0.0 mm
00:19 10.7 °C 6.4 °C 1014.4 hPa Sur 7.8 km/h 11.3 km/h 75% 0.0 mm
00:24 10.7 °C 6.4 °C 1014.3 hPa Sur 6.9 km/h 13.7 km/h 75% 0.0 mm
00:29 10.7 °C 6.4 °C 1014.3 hPa Sur 7.7 km/h 14.5 km/h 74.9% 0.0 mm
00:34 10.7 °C 6.3 °C 1014.3 hPa Sur 8.4 km/h 13.7 km/h 74% 0.0 mm
00:39 10.7 °C 6.3 °C 1014.1 hPa Sur 8.9 km/h 14.5 km/h 74% 0.0 mm
00:44 10.7 °C 6.3 °C 1014.1 hPa Sur 9.5 km/h 14.5 km/h 74% 0.0 mm
00:49 10.7 °C 6.2 °C 1014.1 hPa Sur 8.5 km/h 11.3 km/h 74% 0.0 mm
00:54 10.6 °C 6.3 °C 1014.0 hPa SSO 7.6 km/h 11.9 km/h 74.8% 0.0 mm
00:59 10.6 °C 6.2 °C 1014.0 hPa Sur 8 km/h 13.7 km/h 74.3% 0.0 mm
01:04 10.6 °C 6.2 °C 1014.0 hPa Sur 8.4 km/h 14.5 km/h 74% 0.0 mm
01:09 10.6 °C 6.2 °C 1013.8 hPa Sur 8.4 km/h 14.5 km/h 74% 0.0 mm
01:14 10.5 °C 6.1 °C 1013.8 hPa SSE 8.4 km/h 13 km/h 74% 0.0 mm
01:19 10.4 °C 6 °C 1013.8 hPa Sur 8.5 km/h 14.8 km/h 74% 0.0 mm
01:24 10.3 °C 5.9 °C 1013.7 hPa Sur 8.7 km/h 14.8 km/h 74% 0.0 mm
01:29 10.3 °C 5.9 °C 1013.7 hPa SSO 9.2 km/h 14.5 km/h 74% 0.0 mm
01:34 10.3 °C 5.9 °C 1013.7 hPa SO 9.5 km/h 11.3 km/h 74% 0.0 mm
01:39 10.3 °C 5.9 °C 1013.5 hPa OSO 7.9 km/h 9.7 km/h 74.1% 0.0 mm
01:44 10.3 °C 5.9 °C 1013.5 hPa SO 6.9 km/h 10 km/h 74% 0.0 mm
01:49 10.3 °C 5.8 °C 1013.5 hPa SO 6.6 km/h 9.7 km/h 74% 0.0 mm
01:54 10.2 °C 5.6 °C 1013.3 hPa SO 6.5 km/h 9.7 km/h 73.2% 0.0 mm
01:59 10.3 °C 5.7 °C 1013.3 hPa SO 5.4 km/h 10.3 km/h 73% 0.0 mm
02:04 10.3 °C 5.7 °C 1013.3 hPa SSO 5 km/h 11.3 km/h 73% 0.0 mm
02:09 10.4 °C 5.7 °C 1013.2 hPa SSO 6.2 km/h 11.3 km/h 72.9% 0.0 mm
02:14 10.4 °C 5.6 °C 1013.2 hPa SO 6.9 km/h 13 km/h 72% 0.0 mm
02:19 10.4 °C 5.5 °C 1013.2 hPa SO 7.3 km/h 12.9 km/h 72% 0.0 mm
02:24 10.3 °C 5.6 °C 1013.1 hPa SO 7.6 km/h 16.7 km/h 72.6% 0.0 mm
02:29 10.3 °C 5.4 °C 1013.1 hPa SSO 8.8 km/h 16.7 km/h 72% 0.0 mm
02:34 10.2 °C 5.4 °C 1013.1 hPa SSO 9.5 km/h 14.5 km/h 72% 0.0 mm
02:39 10.2 °C 5.4 °C 1012.9 hPa Sur 9.5 km/h 14.5 km/h 72% 0.0 mm
02:44 10.3 °C 5.4 °C 1012.9 hPa Sur 9.5 km/h 11.3 km/h 72% 0.0 mm
02:49 10.2 °C 5.4 °C 1012.9 hPa SSO 7.3 km/h 9.7 km/h 72% 0.0 mm
02:54 10.2 °C 5.4 °C 1012.7 hPa Sur 5.8 km/h 9.7 km/h 72% 0.0 mm
02:59 10.1 °C 5.3 °C 1012.7 hPa SSO 4 km/h 11.9 km/h 72% 0.0 mm
03:04 10 °C 5.2 °C 1012.8 hPa SO 3.2 km/h 13 km/h 72.3% 0.0 mm
03:09 9.9 °C 5.1 °C 1012.8 hPa SO 6.4 km/h 15.6 km/h 72.2% 0.0 mm
03:14 9.8 °C 5.1 °C 1012.8 hPa SSO 8.4 km/h 16.1 km/h 72.7% 0.0 mm
03:19 9.6 °C 5 °C 1012.8 hPa SSO 8.4 km/h 15.6 km/h 73% 0.0 mm
03:24 9.4 °C 4.9 °C 1012.7 hPa SSO 8.4 km/h 16.1 km/h 73.7% 0.0 mm
03:29 9.3 °C 4.9 °C 1012.7 hPa SSO 8.6 km/h 13 km/h 74% 0.0 mm
03:34 9.3 °C 4.9 °C 1012.7 hPa Sur 8.7 km/h 12.9 km/h 74% 0.0 mm
03:39 9.3 °C 4.9 °C 1012.5 hPa SSO 8.5 km/h 13.7 km/h 74% 0.0 mm
03:44 9.3 °C 4.9 °C 1012.5 hPa SSO 8.4 km/h 14.5 km/h 73.8% 0.0 mm
03:49 9.3 °C 4.8 °C 1012.5 hPa SO 8.4 km/h 12.9 km/h 73.1% 0.0 mm
03:54 9.4 °C 4.7 °C 1012.4 hPa OSO 8.4 km/h 9.7 km/h 72.4% 0.0 mm
03:59 9.4 °C 4.6 °C 1012.4 hPa OSO 7 km/h 9.7 km/h 72% 0.0 mm
04:04 9.4 °C 4.6 °C 1012.4 hPa OSO 6.5 km/h 11.1 km/h 72% 0.0 mm
04:09 9.4 °C 4.6 °C 1012.1 hPa SO 5.6 km/h 11.3 km/h 72% 0.0 mm
04:14 9.4 °C 4.5 °C 1012.1 hPa SO 5 km/h 10 km/h 71.4% 0.0 mm
04:19 9.5 °C 4.4 °C 1012.1 hPa SSO 5.9 km/h 12.2 km/h 70.7% 0.0 mm
04:24 9.6 °C 4.2 °C 1011.9 hPa SO 6.5 km/h 13 km/h 69.4% 0.0 mm
04:29 9.6 °C 4.2 °C 1011.9 hPa SO 7.7 km/h 13 km/h 69% 0.0 mm
04:34 9.7 °C 4 °C 1011.9 hPa SO 8.4 km/h 13.7 km/h 67.7% 0.0 mm
04:39 9.8 °C 3.7 °C 1011.7 hPa SO 8.4 km/h 14.8 km/h 66% 0.0 mm
04:44 9.9 °C 3.5 °C 1011.7 hPa SO 8.4 km/h 15.6 km/h 64.7% 0.0 mm
04:49 10.1 °C 3.5 °C 1011.7 hPa SSO 8.6 km/h 16.1 km/h 63.6% 0.0 mm
04:54 10.1 °C 3.4 °C 1011.4 hPa SSO 8.7 km/h 14.5 km/h 63% 0.0 mm
04:59 10.1 °C 3.4 °C 1011.4 hPa Sur 7.5 km/h 11.3 km/h 63% 0.0 mm
05:04 10.1 °C 3.4 °C 1011.4 hPa SO 6.9 km/h 9.7 km/h 63% 0.0 mm
05:09 10.1 °C 3.2 °C 1011.4 hPa SO 5.7 km/h 9.7 km/h 62.3% 0.0 mm
05:14 10 °C 3 °C 1011.4 hPa SSO 5 km/h 12.2 km/h 61.9% 0.0 mm
05:19 9.9 °C 2.9 °C 1011.4 hPa SO 6.2 km/h 13 km/h 61.9% 0.0 mm
05:24 9.9 °C 2.9 °C 1011.2 hPa SSO 6.9 km/h 16.7 km/h 62% 0.0 mm
05:29 9.9 °C 2.8 °C 1011.2 hPa SO 7.9 km/h 16.1 km/h 61.3% 0.0 mm
05:34 9.9 °C 2.8 °C 1011.2 hPa SSO 8.4 km/h 15.6 km/h 61% 0.0 mm
05:39 10.2 °C 2.9 °C 1011.0 hPa SO 8.4 km/h 16.1 km/h 60.6% 0.0 mm
05:44 10 °C 2.9 °C 1011.0 hPa SO 8.4 km/h 13 km/h 61% 0.0 mm
05:49 9.9 °C 2.7 °C 1011.0 hPa SO 7.2 km/h 13 km/h 60.9% 0.0 mm
05:54 10.1 °C 2.7 °C 1010.8 hPa SSO 6.5 km/h 12.9 km/h 60% 0.0 mm
05:59 10.2 °C 2.6 °C 1010.8 hPa SSO 7.2 km/h 13.7 km/h 59.2% 0.0 mm
06:04 10.2 °C 2.6 °C 1010.8 hPa Sur 7.6 km/h 14.8 km/h 59% 0.0 mm
06:09 10.2 °C 2.4 °C 1010.7 hPa SO 8.2 km/h 14.5 km/h 58.2% 0.0 mm
06:14 10.3 °C 2.2 °C 1010.7 hPa Sur 8.7 km/h 12.9 km/h 57.4% 0.0 mm
06:19 10.3 °C 2.2 °C 1010.7 hPa Sur 8.5 km/h 13 km/h 57.3% 0.0 mm
06:24 10.2 °C 2.2 °C 1010.6 hPa SSO 8.4 km/h 11.9 km/h 57.8% 0.0 mm
06:29 10.1 °C 2.2 °C 1010.6 hPa SO 7.9 km/h 11.3 km/h 58% 0.0 mm
06:34 9.9 °C 2 °C 1010.6 hPa SO 7.6 km/h 13 km/h 58% 0.0 mm
06:39 9.9 °C 2 °C 1010.6 hPa OSO 6.5 km/h 12.9 km/h 58% 0.0 mm
06:44 9.9 °C 2 °C 1010.6 hPa SO 5.8 km/h 9.7 km/h 58% 0.0 mm
06:49 9.8 °C 1.9 °C 1010.7 hPa SO 5.8 km/h 14.8 km/h 58.1% 0.0 mm
06:54 9.7 °C 1.8 °C 1010.7 hPa SSO 5.8 km/h 14.5 km/h 58% 0.0 mm
06:59 9.7 °C 1.8 °C 1010.7 hPa SO 5.8 km/h 11.1 km/h 58.2% 0.0 mm
07:04 9.5 °C 1.9 °C 1010.7 hPa OSO 5.8 km/h 11.3 km/h 59% 0.0 mm
07:09 9.5 °C 1.7 °C 1010.4 hPa SSO 6.5 km/h 11.3 km/h 58.4% 0.0 mm
07:14 9.7 °C 1.6 °C 1010.4 hPa SO 6.9 km/h 11.3 km/h 57.4% 0.0 mm
07:19 9.7 °C 1.6 °C 1010.4 hPa SO 6.9 km/h 12.2 km/h 57% 0.0 mm
07:24 9.8 °C 1.6 °C 1010.4 hPa SO 6.9 km/h 13 km/h 56.9% 0.0 mm
07:29 9.8 °C 1.5 °C 1010.4 hPa OSO 6.6 km/h 12.9 km/h 56.4% 0.0 mm
07:34 9.7 °C 1.5 °C 1010.5 hPa OSO 6.5 km/h 8.4 km/h 57% 0.0 mm
07:39 9.5 °C 1.6 °C 1010.5 hPa OSO 5.4 km/h 8 km/h 57.8% 0.0 mm
07:44 9.2 °C 1.5 °C 1010.5 hPa ONO 4.6 km/h 9.5 km/h 58.6% 0.0 mm
07:49 8.8 °C 1.5 °C 1010.6 hPa Oeste 4.8 km/h 9.7 km/h 60.1% 0.0 mm
07:54 8.5 °C 1.5 °C 1010.6 hPa OSO 5 km/h 8 km/h 61.3% 0.0 mm
07:59 8.3 °C 1.5 °C 1010.6 hPa OSO 4.8 km/h 8 km/h 62% 0.0 mm
08:04 8.3 °C 1.5 °C 1010.6 hPa SSO 4.6 km/h 10 km/h 62% 0.0 mm
08:09 8.5 °C 1.4 °C 1010.6 hPa SSO 4.8 km/h 9.7 km/h 61.1% 0.0 mm
08:14 8.7 °C 1.4 °C 1010.6 hPa Sur 5 km/h 10.3 km/h 60.2% 0.0 mm
08:19 8.8 °C 1.3 °C 1010.6 hPa SSO 5.8 km/h 9.7 km/h 59.5% 0.0 mm
08:24 8.9 °C 1.3 °C 1010.6 hPa SO 6.5 km/h 9.7 km/h 59% 0.0 mm
08:29 8.9 °C 1.3 °C 1010.6 hPa SO 5.6 km/h 9.7 km/h 59% 0.0 mm
08:34 8.9 °C 1.3 °C 1010.8 hPa SSO 5 km/h 10.3 km/h 59% 0.0 mm
08:39 9 °C 1.4 °C 1010.8 hPa SSO 6.2 km/h 12.2 km/h 59% 0.0 mm
08:44 9.1 °C 1.3 °C 1010.8 hPa SSO 6.9 km/h 13 km/h 58.2% 0.0 mm
08:49 9.3 °C 1.4 °C 1010.8 hPa SO 7.8 km/h 12.9 km/h 58% 0.0 mm
08:54 9.3 °C 1.4 °C 1010.7 hPa SSO 8.4 km/h 12.2 km/h 57.7% 0.0 mm
08:59 9.4 °C 1.6 °C 1010.7 hPa SSO 8.4 km/h 13.7 km/h 58% 0.0 mm
09:04 9.4 °C 1.7 °C 1010.7 hPa Sur 8.4 km/h 14.5 km/h 58.5% 0.0 mm
09:09 9.3 °C 1.7 °C 1010.6 hPa Sur 7.5 km/h 9.7 km/h 59% 0.0 mm
09:14 9.3 °C 1.6 °C 1010.6 hPa SO 6.9 km/h 9.7 km/h 58.3% 0.0 mm
09:19 9.6 °C 1.7 °C 1010.9 hPa OSO 5.5 km/h 9.7 km/h 58% 0.0 mm
09:24 9.7 °C 1.8 °C 1010.9 hPa Oeste 4.7 km/h 13 km/h 58.1% 0.0 mm
09:29 9.5 °C 1.8 °C 1010.9 hPa OSO 5.7 km/h 13 km/h 59% 0.0 mm
09:34 9.3 °C 1.9 °C 1010.9 hPa OSO 6.5 km/h 15.6 km/h 59.8% 0.0 mm
09:39 9.5 °C 1.9 °C 1010.7 hPa Oeste 6.7 km/h 16.1 km/h 59.2% 0.0 mm
09:44 9.7 °C 2.1 °C 1010.7 hPa ONO 6.9 km/h 13.7 km/h 58.9% 0.0 mm
09:49 10.1 °C 2 °C 1010.8 hPa Oeste 6.3 km/h 14.5 km/h 56.9% 0.0 mm
09:54 10.8 °C 1.9 °C 1010.8 hPa OSO 5.8 km/h 10 km/h 54.4% 0.0 mm
09:59 11.4 °C 2.2 °C 1010.8 hPa SSO 5.3 km/h 10 km/h 53.1% 0.0 mm
10:04 11.6 °C 2.9 °C 1010.8 hPa SSE 5 km/h 13.7 km/h 55.2% 0.0 mm
10:09 11.3 °C 2.9 °C 1010.8 hPa SSE 5.9 km/h 14.5 km/h 56.2% 0.0 mm
10:14 11.2 °C 3.1 °C 1010.8 hPa SSE 6.5 km/h 14 km/h 57.4% 0.0 mm
10:19 11.2 °C 3.3 °C 1010.8 hPa Sur 7.2 km/h 14.8 km/h 58% 0.0 mm
10:24 11.8 °C 3.6 °C 1010.8 hPa SO 7.6 km/h 15.6 km/h 57.1% 0.0 mm
10:29 12.9 °C 3.9 °C 1010.8 hPa OSO 8.1 km/h 16.1 km/h 54.5% 0.0 mm
10:34 13.9 °C 4.1 °C 1010.9 hPa OSO 8.4 km/h 19.8 km/h 51.8% 0.0 mm
10:39 14.5 °C 4.2 °C 1010.9 hPa Oeste 8.4 km/h 24.5 km/h 50.2% 0.0 mm
10:44 15.1 °C 4.7 °C 1010.9 hPa ONO 8.4 km/h 24.1 km/h 49.8% 0.0 mm
10:49 15.4 °C 4.7 °C 1011.0 hPa ONO 9 km/h 20.9 km/h 49% 0.0 mm
10:54 15.8 °C 4.8 °C 1011.0 hPa ONO 9.5 km/h 22.2 km/h 48.2% 0.0 mm
10:59 16 °C 5 °C 1011.0 hPa NO 8.9 km/h 22.5 km/h 48% 0.0 mm
11:04 16.2 °C 4.9 °C 1011.1 hPa ONO 8.4 km/h 17.2 km/h 47% 0.0 mm
11:09 16.4 °C 5 °C 1011.1 hPa Oeste 7.4 km/h 20.9 km/h 46.6% 0.0 mm
11:14 16.6 °C 4.7 °C 1011.1 hPa Oeste 6.9 km/h 27 km/h 45.2% 0.0 mm
11:19 16.7 °C 4.7 °C 1011.2 hPa Oeste 11.2 km/h 27.4 km/h 45% 0.0 mm
11:24 16.8 °C 4.8 °C 1011.2 hPa SSO 13.7 km/h 24.1 km/h 45% 0.0 mm
11:29 16.8 °C 4.7 °C 1011.2 hPa Oeste 9.5 km/h 10 km/h 44.9% 0.0 mm
11:34 16.8 °C 4.8 °C 1011.2 hPa SO 6.9 km/h 9.7 km/h 45% 0.0 mm
11:39 16.9 °C 4.8 °C 1011.0 hPa SSO 6.3 km/h 13.7 km/h 44.7% 0.0 mm
11:44 16.9 °C 4.8 °C 1011.0 hPa SO 5.8 km/h 14.5 km/h 44.8% 0.0 mm
11:49 16.9 °C 4.6 °C 1011.0 hPa SO 7.5 km/h 16.7 km/h 44% 0.0 mm
11:54 17.1 °C 4.6 °C 1011.0 hPa SO 8.7 km/h 16.1 km/h 43.6% 0.0 mm
11:59 17.3 °C 4.4 °C 1011.0 hPa OSO 9.4 km/h 16.1 km/h 42.5% 0.0 mm
12:04 17.6 °C 4.3 °C 1011.0 hPa Oeste 10 km/h 38.9 km/h 41.3% 0.0 mm
12:09 18.1 °C 3.9 °C 1011.0 hPa ONO 11.8 km/h 38.6 km/h 38.9% 0.0 mm
12:14 18.4 °C 3.8 °C 1011.0 hPa ONO 13 km/h 39.6 km/h 38% 0.0 mm
12:19 18.4 °C 3.7 °C 1011.0 hPa ONO 18.9 km/h 40.7 km/h 37.7% 0.0 mm
12:24 18.4 °C 3.4 °C 1011.0 hPa Oeste 22.5 km/h 43.1 km/h 36.8% 0.0 mm
12:29 18.4 °C 3.2 °C 1011.0 hPa ONO 24.3 km/h 50.4 km/h 36.3% 0.0 mm
12:34 18.4 °C 3.1 °C 1011.0 hPa NO 25.6 km/h 49.9 km/h 36.2% 0.0 mm
12:39 18.4 °C 3 °C 1011.0 hPa NO 24.2 km/h 45.1 km/h 35.9% 0.0 mm
12:44 18.4 °C 3 °C 1011.0 hPa ONO 23.3 km/h 41.8 km/h 36% 0.0 mm
12:49 18.5 °C 3.1 °C 1011.0 hPa ONO 23.5 km/h 44.3 km/h 35.9% 0.0 mm
12:54 18.6 °C 3 °C 1010.8 hPa ONO 23.7 km/h 45.1 km/h 35.5% 0.0 mm
12:59 18.7 °C 3.3 °C 1010.8 hPa NO 22.9 km/h 41.8 km/h 36% 0.0 mm
13:04 18.8 °C 3.1 °C 1010.8 hPa ONO 22.5 km/h 38.6 km/h 35.2% 0.0 mm
13:09 19 °C 3.2 °C 1010.6 hPa NO 22.1 km/h 46.3 km/h 35% 0.0 mm
14:14 18.3 °C 3.3 °C 1009.9 hPa NO 20.1 km/h 46.3 km/h 37% 0.0 mm
14:19 18.3 °C 3.1 °C 1009.9 hPa ONO 24.7 km/h 52.6 km/h 36.4% 0.0 mm
14:24 18.5 °C 3.3 °C 1009.8 hPa ONO 27.4 km/h 53.1 km/h 36.5% 0.0 mm
14:29 18.5 °C 3.2 °C 1009.8 hPa ONO 26.3 km/h 48.1 km/h 36.1% 0.0 mm
14:34 18.5 °C 3.3 °C 1009.9 hPa NO 25.6 km/h 48.3 km/h 36.7% 0.0 mm
14:39 18.6 °C 3.3 °C 1009.9 hPa ONO 25.3 km/h 44.4 km/h 36% 0.0 mm
14:44 18.7 °C 3.3 °C 1009.9 hPa ONO 25.1 km/h 45.1 km/h 36% 0.0 mm
14:49 18.7 °C 3.3 °C 1010.1 hPa ONO 24.1 km/h 35.4 km/h 36% 0.0 mm
14:54 18.7 °C 3.3 °C 1010.1 hPa ONO 23.3 km/h 44.9 km/h 36% 0.0 mm
14:59 18.6 °C 3.2 °C 1010.1 hPa ONO 24.1 km/h 50.1 km/h 36% 0.0 mm
15:04 18.6 °C 3.5 °C 1010.1 hPa ONO 24.5 km/h 49.9 km/h 36.6% 0.0 mm
15:09 18.5 °C 3.4 °C 1010.1 hPa NO 26 km/h 46.7 km/h 36.7% 0.0 mm
15:14 18.5 °C 3.5 °C 1010.1 hPa ONO 27 km/h 41.8 km/h 37% 0.0 mm
15:19 18.6 °C 3.6 °C 1010.2 hPa ONO 22.8 km/h 39.6 km/h 37% 0.0 mm
15:24 18.3 °C 3 °C 1010.2 hPa NO 20.1 km/h 51.8 km/h 36% 0.0 mm
15:29 18.2 °C 3.2 °C 1010.2 hPa NO 25 km/h 51.5 km/h 36.9% 0.0 mm
15:34 18.1 °C 2.8 °C 1010.4 hPa NO 28.2 km/h 45.1 km/h 36.2% 0.0 mm
15:39 18.1 °C 2.7 °C 1010.4 hPa NO 25.5 km/h 43.5 km/h 36% 0.0 mm
15:44 18.1 °C 2.8 °C 1010.4 hPa ONO 23.7 km/h 40.7 km/h 36% 0.0 mm
15:49 17.9 °C 2.6 °C 1010.7 hPa ONO 25.2 km/h 53.8 km/h 36% 0.0 mm
15:54 17.8 °C 2.5 °C 1010.7 hPa ONO 26.2 km/h 53.8 km/h 36% 0.0 mm
15:59 17.7 °C 2.6 °C 1010.7 hPa ONO 29.1 km/h 50.1 km/h 36.4% 0.0 mm
16:04 17.7 °C 2.4 °C 1010.7 hPa ONO 30.6 km/h 57.9 km/h 36% 0.0 mm
16:09 17.6 °C 2.5 °C 1010.7 hPa Oeste 28.7 km/h 57.9 km/h 36.4% 0.0 mm
16:14 17.6 °C 2.7 °C 1010.7 hPa Oeste 27.4 km/h 45.1 km/h 37% 0.0 mm
16:19 17.6 °C 2.7 °C 1010.7 hPa Oeste 25 km/h 44.4 km/h 37% 0.0 mm
16:24 17.6 °C 2.7 °C 1010.5 hPa Oeste 23.3 km/h 45.1 km/h 37% 0.0 mm
16:29 17.6 °C 2.6 °C 1010.5 hPa Oeste 21.9 km/h 41.2 km/h 36.6% 0.0 mm
16:34 17.6 °C 2.5 °C 1010.7 hPa Oeste 20.9 km/h 41.8 km/h 36.4% 0.0 mm
16:39 17.7 °C 2.8 °C 1010.7 hPa ONO 19.8 km/h 40.2 km/h 37% 0.0 mm
16:44 17.7 °C 2.8 °C 1010.7 hPa Oeste 19 km/h 41.2 km/h 37% 0.0 mm
16:49 17.6 °C 2.7 °C 1011.0 hPa Oeste 18.4 km/h 41.8 km/h 37% 0.0 mm
16:54 17.6 °C 2.7 °C 1011.0 hPa Oeste 18 km/h 27.8 km/h 37% 0.0 mm
16:59 17.7 °C 2.8 °C 1011.0 hPa Oeste 14.3 km/h 27.8 km/h 37% 0.0 mm
17:04 17.6 °C 2.8 °C 1011.1 hPa Oeste 12.2 km/h 40.7 km/h 37% 0.0 mm
17:09 17.6 °C 2.7 °C 1011.1 hPa Oeste 15.2 km/h 40.7 km/h 37% 0.0 mm
17:14 17.4 °C 2.5 °C 1011.1 hPa Oeste 17.2 km/h 40.7 km/h 36.9% 0.0 mm
17:19 17.4 °C 2.4 °C 1011.1 hPa Oeste 20 km/h 51.8 km/h 36.7% 0.0 mm
17:24 17.4 °C 1.9 °C 1011.1 hPa ONO 22.1 km/h 51.5 km/h 35.3% 0.0 mm
17:29 17.3 °C 1.7 °C 1011.1 hPa ONO 21.9 km/h 43.5 km/h 35% 0.0 mm
17:34 17.2 °C 1.9 °C 1011.3 hPa ONO 21.7 km/h 32.2 km/h 35.7% 0.0 mm
17:39 17.3 °C 1.9 °C 1011.3 hPa Oeste 16.6 km/h 33.3 km/h 35.7% 0.0 mm
17:44 17.3 °C 1.7 °C 1011.3 hPa Oeste 13 km/h 33.8 km/h 35% 0.0 mm
17:49 17.3 °C 1.7 °C 1011.5 hPa Oeste 14.6 km/h 27.4 km/h 35% 0.0 mm
17:54 17.3 °C 1.7 °C 1011.5 hPa OSO 15.6 km/h 22.5 km/h 35.1% 0.0 mm
17:59 17.3 °C 2 °C 1011.5 hPa Oeste 11.7 km/h 29.6 km/h 35.8% 0.0 mm
18:04 17.2 °C 2 °C 1011.6 hPa Oeste 9.5 km/h 29.6 km/h 36% 0.0 mm
18:09 17 °C 1.8 °C 1011.6 hPa Oeste 12.7 km/h 29 km/h 36% 0.0 mm
18:14 16.8 °C 1.7 °C 1011.6 hPa OSO 14.8 km/h 35.2 km/h 36% 0.0 mm
18:19 16.8 °C 1.6 °C 1011.6 hPa Oeste 15.7 km/h 42.6 km/h 36% 0.0 mm
18:24 16.7 °C 1.5 °C 1011.4 hPa Oeste 16.4 km/h 42.6 km/h 35.8% 0.0 mm
18:29 16.7 °C 1.1 °C 1011.4 hPa ONO 20.5 km/h 54.2 km/h 34.8% 0.0 mm
18:34 16.7 °C 0.8 °C 1011.7 hPa ONO 23.3 km/h 55.4 km/h 34% 0.0 mm
18:39 16.7 °C 0.8 °C 1011.7 hPa ONO 28.4 km/h 56.3 km/h 34.1% 0.0 mm
18:44 16.6 °C 0.7 °C 1011.7 hPa ONO 31.7 km/h 41.8 km/h 34.1% 0.0 mm
18:49 16.6 °C 0.6 °C 1012.3 hPa ONO 26.3 km/h 37 km/h 34% 0.0 mm
18:54 16.5 °C 0.6 °C 1012.3 hPa ONO 22.5 km/h 37 km/h 34% 0.0 mm
18:59 16.4 °C 0.5 °C 1012.3 hPa ONO 22 km/h 37 km/h 34% 0.0 mm
19:04 16.3 °C 0.4 °C 1012.6 hPa ONO 21.7 km/h 33.8 km/h 34.1% 0.0 mm
19:09 16.3 °C 0.4 °C 1012.6 hPa ONO 20.1 km/h 33.8 km/h 34% 0.0 mm
19:14 16.2 °C 0.1 °C 1012.6 hPa ONO 19 km/h 32.3 km/h 33.5% 0.0 mm
19:19 16.2 °C -0.3 °C 1012.9 hPa NO 19 km/h 33.8 km/h 32.7% 0.0 mm
19:24 16.1 °C -0.6 °C 1012.9 hPa ONO 19 km/h 35.2 km/h 32% 0.0 mm
19:29 16.1 °C -0.6 °C 1012.9 hPa ONO 19.7 km/h 35.4 km/h 32% 0.0 mm
19:34 16.1 °C -0.6 °C 1013.2 hPa ONO 20.1 km/h 35.2 km/h 32% 0.0 mm
19:39 16.1 °C -0.6 °C 1013.2 hPa ONO 19.1 km/h 35.4 km/h 32% 0.0 mm
19:44 15.9 °C -0.8 °C 1013.2 hPa ONO 18.4 km/h 31.5 km/h 32% 0.0 mm
19:49 16 °C -0.9 °C 1013.4 hPa ONO 18.2 km/h 32.2 km/h 31.7% 0.0 mm
19:54 16 °C -1.1 °C 1013.4 hPa ONO 18 km/h 30.6 km/h 31% 0.0 mm
19:59 15.9 °C -0.9 °C 1013.4 hPa ONO 17.5 km/h 34.3 km/h 31.8% 0.0 mm
20:04 15.9 °C -0.8 °C 1013.4 hPa ONO 17.2 km/h 33.8 km/h 32% 0.0 mm
20:09 15.8 °C -0.9 °C 1013.4 hPa ONO 17.2 km/h 30.6 km/h 32% 0.0 mm
20:14 15.7 °C -0.9 °C 1013.4 hPa ONO 17.2 km/h 30.6 km/h 32% 0.0 mm
20:19 15.7 °C -0.9 °C 1013.6 hPa ONO 16.2 km/h 27.4 km/h 32% 0.0 mm
20:24 15.7 °C -0.9 °C 1013.6 hPa ONO 15.6 km/h 27 km/h 32% 0.0 mm
20:29 15.7 °C -0.9 °C 1013.6 hPa ONO 15.1 km/h 27.8 km/h 32% 0.0 mm
20:34 15.7 °C -0.9 °C 1013.7 hPa ONO 14.8 km/h 27.4 km/h 32% 0.0 mm
20:39 15.7 °C -0.9 °C 1013.7 hPa ONO 14.8 km/h 27.8 km/h 32% 0.0 mm
20:44 15.7 °C -1 °C 1013.7 hPa ONO 14.8 km/h 27.4 km/h 32% 0.0 mm
20:49 15.6 °C -1 °C 1013.9 hPa ONO 14.8 km/h 25.7 km/h 32.3% 0.0 mm
20:54 15.4 °C -0.8 °C 1013.9 hPa ONO 14.8 km/h 20.9 km/h 33% 0.0 mm
20:59 15.3 °C -0.9 °C 1013.9 hPa ONO 11.9 km/h 19.3 km/h 33% 0.0 mm
21:04 15.2 °C -1 °C 1014.1 hPa ONO 10.3 km/h 19.3 km/h 33% 0.0 mm
21:09 15.1 °C -0.9 °C 1014.1 hPa ONO 12 km/h 24.5 km/h 33.5% 0.0 mm
21:14 15.1 °C -0.7 °C 1014.1 hPa ONO 13 km/h 27.4 km/h 33.9% 0.0 mm
21:19 15.2 °C -1 °C 1014.2 hPa ONO 15 km/h 35.2 km/h 33.1% 0.0 mm
21:24 15.2 °C -1 °C 1014.2 hPa ONO 16.4 km/h 35.4 km/h 33% 0.0 mm
21:29 15.2 °C -1 °C 1014.2 hPa ONO 15.5 km/h 24.5 km/h 33% 0.0 mm
21:34 15.2 °C -1 °C 1014.6 hPa ONO 14.8 km/h 24.1 km/h 33.1% 0.0 mm
21:39 15.1 °C -0.7 °C 1014.6 hPa ONO 13.8 km/h 22.5 km/h 33.8% 0.0 mm
21:44 15.1 °C -0.7 °C 1014.6 hPa ONO 13 km/h 22.5 km/h 33.9% 0.0 mm
21:49 15.1 °C -0.7 °C 1014.6 hPa ONO 12.4 km/h 19.3 km/h 34% 0.0 mm
21:54 14.9 °C -0.8 °C 1014.6 hPa ONO 11.9 km/h 23.3 km/h 34% 0.0 mm
21:59 14.9 °C -0.8 °C 1014.6 hPa ONO 11.4 km/h 24.1 km/h 34% 0.0 mm
22:04 14.9 °C -0.8 °C 1014.6 hPa ONO 11.1 km/h 22.5 km/h 34% 0.0 mm
22:09 14.9 °C -0.8 °C 1014.6 hPa Oeste 10.6 km/h 19.3 km/h 34% 0.0 mm
22:14 14.9 °C -0.8 °C 1014.6 hPa Oeste 10.3 km/h 20.4 km/h 34% 0.0 mm
22:19 14.8 °C -0.9 °C 1014.8 hPa ONO 9.2 km/h 20.9 km/h 34% 0.0 mm
22:24 14.8 °C -1 °C 1014.8 hPa ONO 8.4 km/h 13.7 km/h 34% 0.0 mm
22:29 14.7 °C -1 °C 1014.8 hPa ONO 7.5 km/h 14.8 km/h 34% 0.0 mm
22:34 14.6 °C -0.9 °C 1014.8 hPa ONO 6.9 km/h 19.8 km/h 34.6% 0.0 mm
22:39 14.5 °C -0.8 °C 1014.7 hPa NO 9 km/h 20.9 km/h 35% 0.0 mm
22:44 14.3 °C -1 °C 1014.7 hPa NO 10.3 km/h 16.7 km/h 35% 0.0 mm
22:49 14.2 °C -1.1 °C 1014.7 hPa ONO 10.1 km/h 18.5 km/h 35% 0.0 mm
22:54 14.1 °C -0.9 °C 1014.7 hPa ONO 10 km/h 19.3 km/h 35.6% 0.0 mm
22:59 14.1 °C -0.8 °C 1014.7 hPa ONO 9.7 km/h 19.3 km/h 36% 0.0 mm
23:04 14 °C -0.8 °C 1014.8 hPa ONO 9.5 km/h 14.8 km/h 36% 0.0 mm
23:09 14.1 °C -0.8 °C 1014.8 hPa ONO 9 km/h 15.6 km/h 36% 0.0 mm
23:14 14.1 °C -0.8 °C 1014.8 hPa Oeste 8.7 km/h 18.5 km/h 36% 0.0 mm
23:19 14.1 °C -0.9 °C 1014.9 hPa ONO 10.1 km/h 22 km/h 35.7% 0.0 mm
23:24 14.2 °C -1.1 °C 1014.9 hPa ONO 11.1 km/h 24.1 km/h 35% 0.0 mm
23:29 14.2 °C -1.1 °C 1014.9 hPa Oeste 13.7 km/h 27.8 km/h 35% 0.0 mm
23:34 14.2 °C -1.1 °C 1014.9 hPa ONO 15.6 km/h 27.4 km/h 35% 0.0 mm
23:39 14.1 °C -1.1 °C 1014.8 hPa ONO 14.7 km/h 20.9 km/h 35% 0.0 mm
23:44 14 °C -1.2 °C 1014.8 hPa ONO 14 km/h 20.9 km/h 35.2% 0.0 mm
23:49 13.9 °C -1.1 °C 1015.0 hPa ONO 11.9 km/h 18.5 km/h 35.7% 0.0 mm
23:54 13.9 °C -1.3 °C 1015.0 hPa ONO 10.3 km/h 22 km/h 35.1% 0.0 mm
23:59 14 °C -1.2 °C 1015.0 hPa ONO 12 km/h 22.5 km/h 35% 0.0 mm
Murcia-Puente Tocinos, Espa?a
Compliments of Weather Underground - 3 mb

La estación de MeteoMurcia.com, publica sus datos en los siguientes proyectos:

Weather Underground PWS IMURCIAP2 Meteoclimatic www.awekas.at

W3Counter
Web Analytics